createdAt,value
2018-08-20T00:02:25.788Z,101720.20
2018-08-20T00:04:55.049Z,101716.50
2018-08-20T00:07:23.907Z,101717.63
2018-08-20T00:09:52.924Z,101716.08
2018-08-20T00:12:22.071Z,101718.52
2018-08-20T00:14:52.595Z,101718.67
2018-08-20T00:17:21.615Z,101717.91
2018-08-20T00:19:50.424Z,101713.55
2018-08-20T00:22:19.226Z,101709.56
2018-08-20T00:25:07.345Z,101714.12
2018-08-20T00:27:36.181Z,101708.77
2018-08-20T00:30:07.216Z,101709.60
2018-08-20T00:32:36.023Z,101705.59
2018-08-20T00:35:04.904Z,101710.56
2018-08-20T00:37:33.765Z,101709.38
2018-08-20T00:40:02.597Z,101704.63
2018-08-20T00:42:31.384Z,101701.48
2018-08-20T00:45:00.195Z,101702.09
2018-08-20T00:47:28.967Z,101703.88
2018-08-20T00:49:57.816Z,101713.20
2018-08-20T00:52:27.000Z,101710.81
2018-08-20T00:54:55.776Z,101709.52
2018-08-20T00:57:24.952Z,101708.75
2018-08-20T00:59:53.982Z,101718.07
2018-08-20T01:02:24.739Z,101701.27
2018-08-20T01:04:53.693Z,101713.95
2018-08-20T01:07:22.642Z,101710.41
2018-08-20T01:09:51.448Z,101708.63
2018-08-20T01:12:20.232Z,101716.14
2018-08-20T01:14:49.181Z,101706.27
2018-08-20T01:17:18.295Z,101706.63
2018-08-20T01:19:47.120Z,101706.63
2018-08-20T01:22:16.529Z,101702.70
2018-08-20T01:24:45.314Z,101699.53
2018-08-20T01:27:31.149Z,101703.88
2018-08-20T01:30:00.092Z,101700.52
2018-08-20T01:32:28.868Z,101698.15
2018-08-20T01:35:17.395Z,101699.13
2018-08-20T01:37:46.698Z,101704.85
2018-08-20T01:40:15.556Z,101702.10
2018-08-20T01:42:44.468Z,101702.69
2018-08-20T01:45:13.249Z,101709.78
2018-08-20T01:47:42.113Z,101706.03
2018-08-20T01:50:11.252Z,101710.80
2018-08-20T01:52:40.100Z,101707.41
2018-08-20T01:55:09.051Z,101705.23
2018-08-20T01:57:38.156Z,101701.27
2018-08-20T02:00:07.024Z,101697.92
2018-08-20T02:02:35.832Z,101698.73
2018-08-20T02:05:06.524Z,101701.27
2018-08-20T02:07:35.631Z,101701.28
2018-08-20T02:10:05.905Z,101704.63
2018-08-20T02:12:34.844Z,101699.70
2018-08-20T02:15:04.690Z,101691.55
2018-08-20T02:17:33.580Z,101693.56
2018-08-20T02:20:02.637Z,101693.77
2018-08-20T02:22:31.774Z,101694.16
2018-08-20T02:25:00.581Z,101697.51
2018-08-20T02:27:29.488Z,101695.16
2018-08-20T02:29:58.342Z,101695.53
2018-08-20T02:32:27.139Z,101689.59
2018-08-20T02:34:56.119Z,101687.64
2018-08-20T02:37:46.939Z,101696.53
2018-08-20T02:40:17.320Z,101686.02
2018-08-20T02:42:46.466Z,101686.41
2018-08-20T02:45:18.054Z,101690.58
2018-08-20T02:47:47.225Z,101686.63
2018-08-20T02:50:16.312Z,101688.01
2018-08-20T02:52:45.566Z,101688.22
2018-08-20T02:55:14.459Z,101684.48
2018-08-20T02:57:43.326Z,101683.08
2018-08-20T03:00:13.965Z,101689.41
2018-08-20T03:02:42.928Z,101677.53
2018-08-20T03:05:12.529Z,101686.03
2018-08-20T03:07:41.504Z,101676.16
2018-08-20T03:10:12.159Z,101677.14
2018-08-20T03:12:41.396Z,101677.14
2018-08-20T03:15:11.265Z,101668.02
2018-08-20T03:17:40.116Z,101667.84
2018-08-20T03:20:09.004Z,101671.78
2018-08-20T03:22:38.045Z,101673.97
2018-08-20T03:25:07.664Z,101673.41
2018-08-20T03:27:36.760Z,101669.03
2018-08-20T03:30:07.607Z,101669.41
2018-08-20T03:32:36.896Z,101671.02
2018-08-20T03:35:08.659Z,101668.47
2018-08-20T03:37:37.872Z,101668.86
2018-08-20T03:40:10.007Z,101665.28
2018-08-20T03:42:38.827Z,101670.23
2018-08-20T03:45:08.631Z,101658.33
2018-08-20T03:47:37.699Z,101670.22
2018-08-20T03:50:10.451Z,101662.31
2018-08-20T03:52:39.474Z,101670.00
2018-08-20T03:55:08.320Z,101667.22
2018-08-20T03:57:37.589Z,101668.05
2018-08-20T04:00:08.480Z,101666.47
2018-08-20T04:02:37.251Z,101665.09
2018-08-20T04:05:06.272Z,101665.86
2018-08-20T04:07:35.073Z,101668.45
2018-08-20T04:10:03.993Z,101656.36
2018-08-20T04:12:32.786Z,101662.12
2018-08-20T04:15:02.194Z,101672.19
2018-08-20T04:17:31.008Z,101671.62
2018-08-20T04:19:59.790Z,101673.38
2018-08-20T04:22:28.708Z,101669.64
2018-08-20T04:24:57.504Z,101670.02
2018-08-20T04:27:26.278Z,101668.25
2018-08-20T04:29:55.255Z,101666.66
2018-08-20T04:32:24.040Z,101665.47
2018-08-20T04:34:53.032Z,101666.84
2018-08-20T04:37:21.979Z,101663.09
2018-08-20T04:39:50.732Z,101658.55
2018-08-20T04:42:19.783Z,101661.70
2018-08-20T04:44:48.615Z,101661.31
2018-08-20T04:47:17.441Z,101660.11
2018-08-20T04:49:46.224Z,101656.91
2018-08-20T04:52:15.125Z,101667.24
2018-08-20T04:54:43.939Z,101671.58
2018-08-20T04:57:12.999Z,101661.08
2018-08-20T04:59:43.255Z,101664.84
2018-08-20T05:02:12.122Z,101665.25
2018-08-20T05:04:40.871Z,101667.80
2018-08-20T05:07:09.735Z,101664.84
2018-08-20T05:09:38.540Z,101672.77
2018-08-20T05:12:07.326Z,101668.61
2018-08-20T05:14:36.279Z,101676.33
2018-08-20T05:17:05.448Z,101684.03
2018-08-20T05:19:34.259Z,101683.06
2018-08-20T05:22:03.365Z,101681.88
2018-08-20T05:24:32.151Z,101685.44
2018-08-20T05:27:00.947Z,101683.08
2018-08-20T05:29:29.888Z,101683.24
2018-08-20T05:31:58.707Z,101678.91
2018-08-20T05:34:27.476Z,101686.25
2018-08-20T05:36:56.380Z,101691.94
2018-08-20T05:39:25.324Z,101696.91
2018-08-20T05:41:54.144Z,101698.88
2018-08-20T05:44:23.036Z,101695.09
2018-08-20T05:46:51.828Z,101698.08
2018-08-20T05:49:20.659Z,101700.85
2018-08-20T05:51:49.700Z,101698.29
2018-08-20T05:54:18.476Z,101703.81
2018-08-20T05:56:47.306Z,101707.16
2018-08-20T05:59:16.408Z,101711.96
2018-08-20T06:01:45.233Z,101715.54
2018-08-20T06:04:14.019Z,101709.39
2018-08-20T06:06:42.852Z,101716.34
2018-08-20T06:09:12.134Z,101714.92
2018-08-20T06:11:40.951Z,101720.88
2018-08-20T06:14:09.828Z,101722.05
2018-08-20T06:16:38.689Z,101732.73
2018-08-20T06:19:07.538Z,101733.73
2018-08-20T06:21:36.584Z,101731.56
2018-08-20T06:24:05.378Z,101738.66
2018-08-20T06:26:34.148Z,101738.86
2018-08-20T06:29:03.092Z,101741.05
2018-08-20T06:31:31.883Z,101745.97
2018-08-20T06:34:00.817Z,101733.88
2018-08-20T06:36:29.999Z,101733.70
2018-08-20T06:38:58.782Z,101741.23
2018-08-20T06:41:27.679Z,101748.58
2018-08-20T06:43:56.528Z,101744.60
2018-08-20T06:46:25.380Z,101739.86
2018-08-20T06:48:54.158Z,101743.98
2018-08-20T06:51:22.983Z,101742.22
2018-08-20T06:53:51.735Z,101741.22
2018-08-20T06:56:20.495Z,101744.97
2018-08-20T06:58:49.564Z,101742.41
2018-08-20T07:01:18.459Z,101747.16
2018-08-20T07:03:47.282Z,101748.95
2018-08-20T07:06:16.208Z,101752.34
2018-08-20T07:08:45.102Z,101753.32
2018-08-20T07:11:13.988Z,101752.50
2018-08-20T07:13:43.030Z,101762.81
2018-08-20T07:16:12.026Z,101765.39
2018-08-20T07:18:40.884Z,101772.51
2018-08-20T07:21:09.843Z,101772.32
2018-08-20T07:23:38.785Z,101775.27
2018-08-20T07:26:07.567Z,101781.22
2018-08-20T07:28:36.711Z,101785.77
2018-08-20T07:31:05.626Z,101780.42
2018-08-20T07:33:34.537Z,101784.97
2018-08-20T07:36:03.724Z,101784.34
2018-08-20T07:38:32.524Z,101786.75
2018-08-20T07:41:01.727Z,101777.86
2018-08-20T07:43:30.767Z,101787.55
2018-08-20T07:45:59.623Z,101788.52
2018-08-20T07:48:28.566Z,101794.84
2018-08-20T07:50:57.670Z,101786.06
2018-08-20T07:53:26.520Z,101791.91
2018-08-20T07:55:55.330Z,101790.43
2018-08-20T07:58:24.299Z,101788.02
2018-08-20T08:00:53.132Z,101799.66
2018-08-20T08:03:27.447Z,101797.13
2018-08-20T08:05:57.245Z,101805.50
2018-08-20T08:08:26.233Z,101811.05
2018-08-20T08:10:55.212Z,101802.85
2018-08-20T08:13:24.100Z,101807.63
2018-08-20T08:15:52.907Z,101808.71
2018-08-20T08:18:21.926Z,101810.23
2018-08-20T08:20:50.901Z,101806.63
2018-08-20T08:23:19.804Z,101810.33
2018-08-20T08:25:48.824Z,101808.12
2018-08-20T08:28:17.644Z,101808.29
2018-08-20T08:30:46.783Z,101808.98
2018-08-20T08:33:15.748Z,101814.20
2018-08-20T08:35:44.620Z,101807.29
2018-08-20T08:38:13.532Z,101815.45
2018-08-20T08:40:42.413Z,101811.36
2018-08-20T08:43:11.551Z,101816.11
2018-08-20T08:45:40.408Z,101819.23
2018-08-20T08:48:09.313Z,101824.59
2018-08-20T08:50:38.207Z,101821.86
2018-08-20T08:53:07.137Z,101826.05
2018-08-20T08:55:36.033Z,101831.80
2018-08-20T08:58:05.075Z,101831.64
2018-08-20T09:00:34.035Z,101831.05
2018-08-20T09:03:02.826Z,101839.59
2018-08-20T09:05:31.892Z,101834.95
2018-08-20T09:08:00.707Z,101847.59
2018-08-20T09:10:29.556Z,101842.91
2018-08-20T09:12:58.481Z,101848.06
2018-08-20T09:15:27.395Z,101852.35
2018-08-20T09:17:56.351Z,101857.97
2018-08-20T09:20:25.187Z,101864.63
2018-08-20T09:22:54.128Z,101860.75
2018-08-20T09:25:22.989Z,101867.69
2018-08-20T09:27:51.875Z,101867.52
2018-08-20T09:30:22.334Z,101873.77
2018-08-20T09:32:51.219Z,101863.08
2018-08-20T09:35:20.136Z,101876.89
2018-08-20T09:37:49.025Z,101875.78
2018-08-20T09:40:17.905Z,101868.91
2018-08-20T09:42:46.992Z,101879.08
2018-08-20T09:45:15.841Z,101875.53
2018-08-20T09:47:44.620Z,101877.78
2018-08-20T09:50:15.554Z,101875.21
2018-08-20T09:52:44.826Z,101881.45
2018-08-20T09:55:13.660Z,101880.48
2018-08-20T09:57:42.639Z,101884.64
2018-08-20T10:00:19.892Z,101893.08
2018-08-20T10:02:49.604Z,101891.99
2018-08-20T10:05:18.703Z,101892.84
2018-08-20T10:07:47.900Z,101893.20
2018-08-20T10:10:16.854Z,101890.75
2018-08-20T10:12:46.204Z,101892.20
2018-08-20T10:15:15.189Z,101889.27
2018-08-20T10:17:44.559Z,101888.55
2018-08-20T10:20:14.424Z,101887.31
2018-08-20T10:22:43.366Z,101902.52
2018-08-20T10:25:12.496Z,101892.83
2018-08-20T10:27:41.347Z,101894.75
2018-08-20T10:30:11.880Z,101886.81
2018-08-20T10:32:40.919Z,101893.68
2018-08-20T10:35:09.835Z,101892.30
2018-08-20T10:37:38.663Z,101900.41
2018-08-20T10:40:08.522Z,101909.17
2018-08-20T10:42:37.977Z,101906.77
2018-08-20T10:45:16.530Z,101915.47
2018-08-20T10:47:47.092Z,101911.17
2018-08-20T10:50:18.272Z,101906.15
2018-08-20T10:52:49.273Z,101908.52
2018-08-20T10:55:18.217Z,101911.50
2018-08-20T10:57:47.205Z,101910.96
2018-08-20T11:00:16.567Z,101914.05
2018-08-20T11:02:45.455Z,101907.63
2018-08-20T11:05:17.562Z,101902.78
2018-08-20T11:07:46.750Z,101901.91
2018-08-20T11:10:15.640Z,101905.84
2018-08-20T11:12:44.503Z,101911.61
2018-08-20T11:15:13.362Z,101912.34
2018-08-20T11:17:42.185Z,101920.77
2018-08-20T11:20:15.148Z,101915.59
2018-08-20T11:22:44.159Z,101912.80
2018-08-20T11:25:13.569Z,101913.64
2018-08-20T11:27:42.627Z,101914.92
2018-08-20T11:30:13.413Z,101918.13
2018-08-20T11:32:42.311Z,101919.98
2018-08-20T11:35:11.847Z,101919.63
2018-08-20T11:37:41.004Z,101929.23
2018-08-20T11:40:09.896Z,101920.20
2018-08-20T11:42:38.830Z,101923.23
2018-08-20T11:45:11.577Z,101926.76
2018-08-20T11:47:40.651Z,101920.55
2018-08-20T11:50:10.073Z,101928.20
2018-08-20T11:52:39.463Z,101926.06
2018-08-20T11:55:08.623Z,101926.81
2018-08-20T11:57:37.444Z,101927.52
2018-08-20T12:00:09.280Z,101920.26
2018-08-20T12:02:38.323Z,101925.59
2018-08-20T12:05:08.239Z,101931.60
2018-08-20T12:07:37.116Z,101934.59
2018-08-20T12:10:08.025Z,101938.52
2018-08-20T12:12:37.159Z,101939.59
2018-08-20T12:15:08.219Z,101933.15
2018-08-20T12:17:37.023Z,101939.35
2018-08-20T12:20:06.796Z,101943.03
2018-08-20T12:22:35.673Z,101948.98
2018-08-20T12:25:05.565Z,101948.26
2018-08-20T12:27:34.391Z,101963.34
2018-08-20T12:30:03.511Z,101965.36
2018-08-20T12:32:32.294Z,101967.32
2018-08-20T12:35:01.077Z,101963.94
2018-08-20T12:37:30.260Z,101969.27
2018-08-20T12:39:59.454Z,101971.00
2018-08-20T12:42:28.095Z,101978.17
2018-08-20T12:44:56.937Z,101971.44
2018-08-20T12:47:25.716Z,101979.59
2018-08-20T12:49:54.463Z,101970.02
2018-08-20T12:52:24.942Z,101975.95
2018-08-20T12:54:53.710Z,101978.56
2018-08-20T12:57:22.624Z,101982.63
2018-08-20T12:59:55.740Z,101980.75
2018-08-20T13:02:24.567Z,101979.11
2018-08-20T13:04:53.351Z,101986.23
2018-08-20T13:07:22.161Z,102002.07
2018-08-20T13:09:50.952Z,101986.80
2018-08-20T13:12:19.778Z,101996.91
2018-08-20T13:14:48.671Z,101993.40
2018-08-20T13:17:17.898Z,101991.35
2018-08-20T13:19:46.741Z,101993.36
2018-08-20T13:22:15.564Z,101982.11
2018-08-20T13:24:44.323Z,101980.66
2018-08-20T13:27:13.196Z,101978.51
2018-08-20T13:29:42.422Z,101982.45
2018-08-20T13:32:11.210Z,101979.09
2018-08-20T13:34:39.988Z,101976.58
2018-08-20T13:37:08.961Z,101973.33
2018-08-20T13:39:37.800Z,101973.58
2018-08-20T13:42:06.775Z,101975.19
2018-08-20T13:44:35.645Z,101984.62
2018-08-20T13:47:04.535Z,101977.44
2018-08-20T13:49:33.319Z,101982.01
2018-08-20T13:52:02.325Z,101985.05
2018-08-20T13:54:31.448Z,101988.55
2018-08-20T13:57:00.252Z,101989.20
2018-08-20T13:59:29.092Z,101989.50
2018-08-20T14:01:57.931Z,101997.88
2018-08-20T14:04:26.812Z,101996.27
2018-08-20T14:06:55.599Z,101987.11
2018-08-20T14:09:25.108Z,101984.67
2018-08-20T14:11:53.875Z,101977.66
2018-08-20T14:14:22.632Z,101981.33
2018-08-20T14:16:51.780Z,101977.30
2018-08-20T14:19:20.577Z,101977.20
2018-08-20T14:21:49.371Z,101983.08
2018-08-20T14:24:18.195Z,101971.56
2018-08-20T14:26:46.976Z,101982.59
2018-08-20T14:29:15.809Z,101982.09
2018-08-20T14:31:44.613Z,101985.52
2018-08-20T14:34:13.415Z,101988.03
2018-08-20T14:36:42.312Z,101989.64
2018-08-20T14:39:11.159Z,101984.49
2018-08-20T14:41:40.116Z,101988.16
2018-08-20T14:44:08.893Z,101988.01
2018-08-20T14:46:37.840Z,101990.30
2018-08-20T14:49:06.641Z,102003.34
2018-08-20T14:51:35.442Z,101996.22
2018-08-20T14:54:04.438Z,102002.73
2018-08-20T14:56:33.232Z,102004.05
2018-08-20T14:59:02.017Z,101999.30
2018-08-20T15:01:31.128Z,101998.91
2018-08-20T15:03:59.958Z,102002.08
2018-08-20T15:06:28.854Z,101995.66
2018-08-20T15:08:57.812Z,101995.07
2018-08-20T15:11:26.572Z,101987.30
2018-08-20T15:13:55.353Z,101989.28
2018-08-20T15:16:24.290Z,101988.84
2018-08-20T15:18:53.179Z,101985.08
2018-08-20T15:21:21.962Z,101981.09
2018-08-20T15:23:51.197Z,101984.46
2018-08-20T15:26:20.032Z,101987.23
2018-08-20T15:28:48.787Z,101988.16
2018-08-20T15:31:17.799Z,101995.92
2018-08-20T15:33:46.557Z,101996.16
2018-08-20T15:36:15.340Z,101987.06
2018-08-20T15:38:44.399Z,101986.48
2018-08-20T15:41:13.248Z,101992.37
2018-08-20T15:43:42.076Z,101991.28
2018-08-20T15:46:11.203Z,101990.88
2018-08-20T15:48:39.985Z,101998.10
2018-08-20T15:51:08.907Z,101992.27
2018-08-20T15:53:37.732Z,101992.64
2018-08-20T15:56:06.644Z,101991.98
2018-08-20T15:58:35.516Z,101988.64
2018-08-20T16:01:04.456Z,101991.86
2018-08-20T16:03:33.261Z,101989.14
2018-08-20T16:06:02.216Z,101987.21
2018-08-20T16:08:31.040Z,101991.69
2018-08-20T16:10:59.811Z,101990.83
2018-08-20T16:13:28.629Z,101993.67
2018-08-20T16:15:57.601Z,101996.01
2018-08-20T16:18:26.475Z,101990.75
2018-08-20T16:20:55.859Z,101991.62
2018-08-20T16:23:24.693Z,101989.31
2018-08-20T16:25:53.551Z,101985.50
2018-08-20T16:28:22.410Z,101988.23
2018-08-20T16:30:51.196Z,101988.23
2018-08-20T16:33:20.137Z,101987.45
2018-08-20T16:35:49.104Z,101992.19
2018-08-20T16:38:18.027Z,101990.17
2018-08-20T16:40:46.895Z,101991.05
2018-08-20T16:43:15.844Z,101988.84
2018-08-20T16:45:44.712Z,101997.95
2018-08-20T16:48:13.588Z,101990.92
2018-08-20T16:50:42.511Z,101992.95
2018-08-20T16:53:11.381Z,101989.66
2018-08-20T16:55:40.219Z,101993.15
2018-08-20T16:58:09.318Z,101992.78
2018-08-20T17:00:38.132Z,101999.57
2018-08-20T17:03:12.011Z,101997.02
2018-08-20T17:05:46.811Z,101999.74
2018-08-20T17:08:33.624Z,101999.55
2018-08-20T17:11:02.433Z,102005.96
2018-08-20T17:13:31.303Z,102003.19
2018-08-20T17:16:00.243Z,102002.19
2018-08-20T17:18:29.220Z,102002.36
2018-08-20T17:20:58.121Z,102004.97
2018-08-20T17:23:26.962Z,102002.19
2018-08-20T17:25:57.536Z,102012.13
2018-08-20T17:28:27.113Z,102008.14
2018-08-20T17:30:59.091Z,102012.13
2018-08-20T17:33:33.293Z,102017.07
2018-08-20T17:36:02.783Z,102016.87
2018-08-20T17:38:31.651Z,102019.45
2018-08-20T17:41:00.580Z,102023.99
2018-08-20T17:43:29.473Z,102021.84
2018-08-20T17:45:58.529Z,102025.78
2018-08-20T17:48:31.262Z,102030.94
2018-08-20T17:51:00.623Z,102030.31
2018-08-20T17:53:46.307Z,102032.91
2018-08-20T17:56:15.199Z,102032.10
2018-08-20T17:58:44.042Z,102034.69
2018-08-20T18:01:12.923Z,102038.84
2018-08-20T18:03:43.592Z,102032.88
2018-08-20T18:06:12.464Z,102040.80
2018-08-20T18:08:41.237Z,102040.80
2018-08-20T18:11:10.149Z,102046.48
2018-08-20T18:13:46.484Z,102043.70
2018-08-20T18:16:19.427Z,102041.95
2018-08-20T18:18:49.923Z,102047.45
2018-08-20T18:21:19.152Z,102049.59
2018-08-20T18:23:48.050Z,102050.05
2018-08-20T18:26:17.107Z,102053.38
2018-08-20T18:28:54.883Z,102057.28
2018-08-20T18:31:26.136Z,102054.12
2018-08-20T18:33:55.238Z,102060.06
2018-08-20T18:36:25.500Z,102051.77
2018-08-20T18:38:58.857Z,102062.09
2018-08-20T18:42:03.273Z,102066.25
2018-08-20T18:44:33.072Z,102062.79
2018-08-20T18:47:02.175Z,102066.80
2018-08-20T18:49:31.165Z,102069.36
2018-08-20T18:52:11.288Z,102074.90
2018-08-20T18:54:52.469Z,102068.78
2018-08-20T18:57:29.234Z,102072.52
2018-08-20T19:00:01.872Z,102071.15
2018-08-20T19:02:40.892Z,102077.64
2018-08-20T19:05:13.729Z,102075.28
2018-08-20T19:07:43.096Z,102078.45
2018-08-20T19:10:30.789Z,102079.80
2018-08-20T19:12:59.827Z,102083.08
2018-08-20T19:15:44.577Z,102086.27
2018-08-20T19:18:21.789Z,102088.90
2018-08-20T19:20:50.705Z,102091.66
2018-08-20T19:23:19.570Z,102096.78
2018-08-20T19:25:48.516Z,102096.75
2018-08-20T19:28:20.573Z,102102.11
2018-08-20T19:30:50.460Z,102100.64
2018-08-20T19:33:24.455Z,102101.91
2018-08-20T19:35:53.943Z,102109.81
2018-08-20T19:38:22.897Z,102105.30
2018-08-20T19:41:03.618Z,102104.33
2018-08-20T19:44:04.363Z,102105.92
2018-08-20T19:46:37.495Z,102102.70
2018-08-20T19:49:10.850Z,102103.28
2018-08-20T19:51:41.821Z,102109.16
2018-08-20T19:54:13.599Z,102106.03
2018-08-20T19:56:42.673Z,102106.03
2018-08-20T19:59:12.252Z,102106.66
2018-08-20T20:01:41.432Z,102111.91
2018-08-20T20:04:15.772Z,102110.55
2018-08-20T20:06:44.760Z,102114.16
2018-08-20T20:09:13.683Z,102114.02
2018-08-20T20:11:46.828Z,102112.41
2018-08-20T20:14:15.743Z,102114.54
2018-08-20T20:16:50.181Z,102115.12
2018-08-20T20:19:19.170Z,102108.76
2018-08-20T20:21:48.274Z,102120.16
2018-08-20T20:24:17.139Z,102119.70
2018-08-20T20:26:46.461Z,102120.59
2018-08-20T20:29:15.448Z,102118.44
2018-08-20T20:31:44.627Z,102121.53
2018-08-20T20:34:13.523Z,102124.77
2018-08-20T20:36:42.447Z,102130.23
2018-08-20T20:39:12.540Z,102128.65
2018-08-20T20:41:41.422Z,102129.94
2018-08-20T20:44:11.475Z,102130.16
2018-08-20T20:46:40.395Z,102125.09
2018-08-20T20:49:09.469Z,102126.76
2018-08-20T20:51:38.331Z,102128.14
2018-08-20T20:54:07.238Z,102136.02
2018-08-20T20:56:36.117Z,102133.61
2018-08-20T20:59:05.073Z,102135.44
2018-08-20T21:01:33.939Z,102143.39
2018-08-20T21:04:07.101Z,102143.64
2018-08-20T21:06:40.100Z,102144.41
2018-08-20T21:09:12.462Z,102144.95
2018-08-20T21:11:41.421Z,102144.48
2018-08-20T21:14:10.518Z,102151.08
2018-08-20T21:16:39.401Z,102144.70
2018-08-20T21:19:08.378Z,102153.00
2018-08-20T21:21:37.259Z,102145.37
2018-08-20T21:24:07.484Z,102146.31
2018-08-20T21:26:36.289Z,102151.33
2018-08-20T21:29:05.294Z,102146.38
2018-08-20T21:31:40.101Z,102156.02
2018-08-20T21:34:09.147Z,102155.70
2018-08-20T21:36:38.045Z,102156.51
2018-08-20T21:39:09.396Z,102159.91
2018-08-20T21:41:38.397Z,102154.87
2018-08-20T21:44:07.339Z,102163.03
2018-08-20T21:46:36.209Z,102159.97
2018-08-20T21:49:05.673Z,102165.00
2018-08-20T21:51:41.680Z,102163.23
2018-08-20T21:54:10.561Z,102166.08
2018-08-20T21:56:50.906Z,102167.57
2018-08-20T21:59:19.776Z,102168.46
2018-08-20T22:01:49.065Z,102169.58
2018-08-20T22:04:19.627Z,102174.19
2018-08-20T22:06:49.168Z,102170.61
2018-08-20T22:09:18.507Z,102175.72
2018-08-20T22:11:47.346Z,102174.53
2018-08-20T22:14:16.189Z,102179.37
2018-08-20T22:16:45.136Z,102177.86
2018-08-20T22:19:14.079Z,102173.87
2018-08-20T22:21:42.971Z,102177.68
2018-08-20T22:24:11.930Z,102167.93
2018-08-20T22:26:46.373Z,102168.35
2018-08-20T22:29:15.400Z,102174.84
2018-08-20T22:31:49.727Z,102174.30
2018-08-20T22:34:18.652Z,102179.11
2018-08-20T22:36:51.956Z,102181.83
2018-08-20T22:39:21.986Z,102187.23
2018-08-20T22:41:51.093Z,102187.44
2018-08-20T22:44:19.865Z,102192.61
2018-08-20T22:46:48.710Z,102195.75
2018-08-20T22:49:18.151Z,102196.55
2018-08-20T22:51:47.154Z,102197.09
2018-08-20T22:54:16.453Z,102200.80
2018-08-20T22:56:45.279Z,102202.34
2018-08-20T22:59:14.279Z,102199.05
2018-08-20T23:01:43.124Z,102195.68
2018-08-20T23:04:12.121Z,102192.94
2018-08-20T23:06:40.928Z,102191.91
2018-08-20T23:09:30.227Z,102197.81
2018-08-20T23:11:59.134Z,102193.86
2018-08-20T23:14:29.680Z,102188.09
2018-08-20T23:16:58.642Z,102192.23
2018-08-20T23:19:30.430Z,102187.34
2018-08-20T23:21:59.407Z,102193.52
2018-08-20T23:24:28.196Z,102189.59
2018-08-20T23:26:57.372Z,102184.73
2018-08-20T23:29:26.191Z,102189.05
2018-08-20T23:31:55.091Z,102184.81
2018-08-20T23:34:23.875Z,102193.23
2018-08-20T23:36:52.743Z,102192.51
2018-08-20T23:39:21.613Z,102200.31
2018-08-20T23:41:50.543Z,102203.70
2018-08-20T23:44:19.359Z,102201.83
2018-08-20T23:46:49.704Z,102204.13
2018-08-20T23:49:18.483Z,102202.84
2018-08-20T23:51:48.011Z,102203.39
2018-08-20T23:54:16.875Z,102199.19
2018-08-20T23:56:45.763Z,102199.83
2018-08-20T23:59:14.593Z,102206.14
